sensor_id;sensor_type;location;lat;lon;timestamp;P1;durP1;ratioP1;P2;durP2;ratioP2
4222;SDS011;2125;51.436;14.138;2022-12-07T00:00:50;10.03;;;3.13;;
4222;SDS011;2125;51.436;14.138;2022-12-07T00:05:51;2.33;;;1.73;;
4222;SDS011;2125;51.436;14.138;2022-12-07T00:08:18;6.23;;;2.20;;
4222;SDS011;2125;51.436;14.138;2022-12-07T00:10:44;6.03;;;2.23;;
4222;SDS011;2125;51.436;14.138;2022-12-07T00:13:12;2.20;;;1.53;;
4222;SDS011;2125;51.436;14.138;2022-12-07T00:15:39;5.60;;;1.80;;
4222;SDS011;2125;51.436;14.138;2022-12-07T00:18:06;4.40;;;2.17;;
4222;SDS011;2125;51.436;14.138;2022-12-07T00:20:33;10.67;;;4.83;;
4222;SDS011;2125;51.436;14.138;2022-12-07T00:22:59;10.23;;;4.17;;
4222;SDS011;2125;51.436;14.138;2022-12-07T00:25:26;9.77;;;5.10;;
4222;SDS011;2125;51.436;14.138;2022-12-07T00:27:52;3.87;;;2.67;;
4222;SDS011;2125;51.436;14.138;2022-12-07T00:30:21;16.87;;;5.13;;
4222;SDS011;2125;51.436;14.138;2022-12-07T00:32:49;8.50;;;3.80;;
4222;SDS011;2125;51.436;14.138;2022-12-07T00:35:15;7.87;;;3.80;;
4222;SDS011;2125;51.436;14.138;2022-12-07T00:37:42;13.00;;;4.80;;
4222;SDS011;2125;51.436;14.138;2022-12-07T00:40:09;11.30;;;4.73;;
4222;SDS011;2125;51.436;14.138;2022-12-07T00:42:36;1.90;;;1.03;;
4222;SDS011;2125;51.436;14.138;2022-12-07T00:45:03;0.80;;;0.80;;
4222;SDS011;2125;51.436;14.138;2022-12-07T00:47:31;0.80;;;0.80;;
4222;SDS011;2125;51.436;14.138;2022-12-07T00:49:58;12.17;;;4.70;;
4222;SDS011;2125;51.436;14.138;2022-12-07T00:52:25;1.43;;;1.13;;
4222;SDS011;2125;51.436;14.138;2022-12-07T00:54:51;1.50;;;1.23;;
4222;SDS011;2125;51.436;14.138;2022-12-07T00:57:18;8.73;;;1.53;;
4222;SDS011;2125;51.436;14.138;2022-12-07T00:59:45;1.60;;;1.50;;
4222;SDS011;2125;51.436;14.138;2022-12-07T01:02:11;2.77;;;1.57;;
4222;SDS011;2125;51.436;14.138;2022-12-07T01:04:39;2.40;;;1.60;;
4222;SDS011;2125;51.436;14.138;2022-12-07T01:07:06;10.70;;;2.67;;
4222;SDS011;2125;51.436;14.138;2022-12-07T01:09:32;9.53;;;3.27;;
4222;SDS011;2125;51.436;14.138;2022-12-07T01:11:59;3.80;;;1.63;;
4222;SDS011;2125;51.436;14.138;2022-12-07T01:14:26;6.00;;;3.10;;
4222;SDS011;2125;51.436;14.138;2022-12-07T01:16:52;4.90;;;2.80;;
4222;SDS011;2125;51.436;14.138;2022-12-07T01:19:19;2.30;;;1.23;;
4222;SDS011;2125;51.436;14.138;2022-12-07T01:21:47;2.57;;;1.90;;
4222;SDS011;2125;51.436;14.138;2022-12-07T01:24:14;3.83;;;2.30;;
4222;SDS011;2125;51.436;14.138;2022-12-07T01:26:40;1.17;;;0.80;;
4222;SDS011;2125;51.436;14.138;2022-12-07T01:29:07;5.90;;;1.73;;
4222;SDS011;2125;51.436;14.138;2022-12-07T01:31:34;8.50;;;3.80;;
4222;SDS011;2125;51.436;14.138;2022-12-07T01:34:00;6.10;;;3.13;;
4222;SDS011;2125;51.436;14.138;2022-12-07T01:36:29;9.70;;;3.93;;
4222;SDS011;2125;51.436;14.138;2022-12-07T01:38:58;3.70;;;2.70;;
4222;SDS011;2125;51.436;14.138;2022-12-07T01:41:27;11.20;;;3.07;;
4222;SDS011;2125;51.436;14.138;2022-12-07T01:44:18;9.63;;;4.97;;
4222;SDS011;2125;51.436;14.138;2022-12-07T01:46:47;5.60;;;3.03;;
4222;SDS011;2125;51.436;14.138;2022-12-07T01:49:16;6.77;;;2.90;;
4222;SDS011;2125;51.436;14.138;2022-12-07T01:51:47;31.40;;;4.33;;
4222;SDS011;2125;51.436;14.138;2022-12-07T01:54:19;4.37;;;2.13;;
4222;SDS011;2125;51.436;14.138;2022-12-07T01:56:47;5.10;;;3.10;;
4222;SDS011;2125;51.436;14.138;2022-12-07T01:59:16;8.03;;;3.53;;
4222;SDS011;2125;51.436;14.138;2022-12-07T02:01:46;28.77;;;3.97;;
4222;SDS011;2125;51.436;14.138;2022-12-07T02:07:17;13.50;;;5.63;;
4222;SDS011;2125;51.436;14.138;2022-12-07T02:09:46;5.83;;;3.47;;
4222;SDS011;2125;51.436;14.138;2022-12-07T02:12:13;7.03;;;2.97;;
4222;SDS011;2125;51.436;14.138;2022-12-07T02:14:40;5.73;;;2.73;;
4222;SDS011;2125;51.436;14.138;2022-12-07T02:17:08;12.07;;;5.83;;
4222;SDS011;2125;51.436;14.138;2022-12-07T02:22:51;7.50;;;3.03;;
4222;SDS011;2125;51.436;14.138;2022-12-07T02:25:36;13.30;;;4.93;;
4222;SDS011;2125;51.436;14.138;2022-12-07T02:28:22;10.97;;;4.50;;
4222;SDS011;2125;51.436;14.138;2022-12-07T02:30:57;13.60;;;6.47;;
4222;SDS011;2125;51.436;14.138;2022-12-07T02:33:33;1.70;;;0.87;;
4222;SDS011;2125;51.436;14.138;2022-12-07T02:36:06;3.50;;;1.50;;
4222;SDS011;2125;51.436;14.138;2022-12-07T02:38:37;2.77;;;2.00;;
4222;SDS011;2125;51.436;14.138;2022-12-07T02:41:10;8.90;;;3.33;;
4222;SDS011;2125;51.436;14.138;2022-12-07T02:43:41;4.60;;;2.50;;
4222;SDS011;2125;51.436;14.138;2022-12-07T02:46:13;6.97;;;3.40;;
4222;SDS011;2125;51.436;14.138;2022-12-07T02:48:43;3.57;;;2.30;;
4222;SDS011;2125;51.436;14.138;2022-12-07T02:51:11;4.77;;;3.60;;
4222;SDS011;2125;51.436;14.138;2022-12-07T02:53:38;3.07;;;1.70;;
4222;SDS011;2125;51.436;14.138;2022-12-07T02:56:09;5.40;;;3.40;;
4222;SDS011;2125;51.436;14.138;2022-12-07T02:58:49;4.00;;;0.57;;
4222;SDS011;2125;51.436;14.138;2022-12-07T03:01:25;9.27;;;1.90;;
4222;SDS011;2125;51.436;14.138;2022-12-07T03:03:58;7.77;;;3.03;;
4222;SDS011;2125;51.436;14.138;2022-12-07T03:06:34;10.80;;;3.60;;
4222;SDS011;2125;51.436;14.138;2022-12-07T03:09:09;8.93;;;2.87;;
4222;SDS011;2125;51.436;14.138;2022-12-07T03:11:41;4.70;;;1.60;;
4222;SDS011;2125;51.436;14.138;2022-12-07T03:14:15;5.07;;;2.50;;
4222;SDS011;2125;51.436;14.138;2022-12-07T03:16:49;13.57;;;3.17;;
4222;SDS011;2125;51.436;14.138;2022-12-07T03:19:21;11.73;;;3.50;;
4222;SDS011;2125;51.436;14.138;2022-12-07T03:21:51;9.77;;;4.70;;
4222;SDS011;2125;51.436;14.138;2022-12-07T03:24:24;11.10;;;4.00;;
4222;SDS011;2125;51.436;14.138;2022-12-07T03:26:55;9.93;;;3.70;;
4222;SDS011;2125;51.436;14.138;2022-12-07T03:29:30;10.20;;;2.20;;
4222;SDS011;2125;51.436;14.138;2022-12-07T03:32:02;14.80;;;4.60;;
4222;SDS011;2125;51.436;14.138;2022-12-07T03:34:35;11.90;;;4.33;;
4222;SDS011;2125;51.436;14.138;2022-12-07T03:37:07;16.17;;;4.80;;
4222;SDS011;2125;51.436;14.138;2022-12-07T03:39:39;10.30;;;3.07;;
4222;SDS011;2125;51.436;14.138;2022-12-07T03:42:10;8.60;;;3.13;;
4222;SDS011;2125;51.436;14.138;2022-12-07T03:44:38;13.27;;;4.70;;
4222;SDS011;2125;51.436;14.138;2022-12-07T03:47:10;19.93;;;5.70;;
4222;SDS011;2125;51.436;14.138;2022-12-07T03:49:43;14.97;;;4.77;;
4222;SDS011;2125;51.436;14.138;2022-12-07T03:52:12;16.30;;;5.13;;
4222;SDS011;2125;51.436;14.138;2022-12-07T03:54:44;11.73;;;4.13;;
4222;SDS011;2125;51.436;14.138;2022-12-07T03:57:14;16.97;;;6.53;;
4222;SDS011;2125;51.436;14.138;2022-12-07T03:59:42;16.03;;;6.10;;
4222;SDS011;2125;51.436;14.138;2022-12-07T04:02:11;16.70;;;6.00;;
4222;SDS011;2125;51.436;14.138;2022-12-07T04:04:39;12.33;;;4.53;;
4222;SDS011;2125;51.436;14.138;2022-12-07T04:07:07;13.87;;;2.70;;
4222;SDS011;2125;51.436;14.138;2022-12-07T04:09:34;15.77;;;4.17;;
4222;SDS011;2125;51.436;14.138;2022-12-07T04:12:01;15.97;;;5.80;;
4222;SDS011;2125;51.436;14.138;2022-12-07T04:14:27;14.07;;;5.30;;
4222;SDS011;2125;51.436;14.138;2022-12-07T04:16:56;15.53;;;5.17;;
4222;SDS011;2125;51.436;14.138;2022-12-07T04:19:25;18.43;;;5.53;;
4222;SDS011;2125;51.436;14.138;2022-12-07T04:21:54;17.47;;;5.77;;
4222;SDS011;2125;51.436;14.138;2022-12-07T04:24:20;16.60;;;6.57;;
4222;SDS011;2125;51.436;14.138;2022-12-07T04:26:48;17.53;;;5.43;;
4222;SDS011;2125;51.436;14.138;2022-12-07T04:29:14;13.90;;;5.53;;
4222;SDS011;2125;51.436;14.138;2022-12-07T04:31:41;16.50;;;6.00;;
4222;SDS011;2125;51.436;14.138;2022-12-07T04:34:08;16.33;;;6.80;;
4222;SDS011;2125;51.436;14.138;2022-12-07T04:36:37;8.27;;;2.63;;
4222;SDS011;2125;51.436;14.138;2022-12-07T04:39:05;12.67;;;4.10;;
4222;SDS011;2125;51.436;14.138;2022-12-07T04:41:33;14.57;;;5.10;;
4222;SDS011;2125;51.436;14.138;2022-12-07T04:44:00;4.10;;;2.40;;
4222;SDS011;2125;51.436;14.138;2022-12-07T04:46:29;17.90;;;6.00;;
4222;SDS011;2125;51.436;14.138;2022-12-07T04:48:57;10.37;;;4.63;;
4222;SDS011;2125;51.436;14.138;2022-12-07T04:51:24;5.70;;;3.07;;
4222;SDS011;2125;51.436;14.138;2022-12-07T04:53:54;5.90;;;2.47;;
4222;SDS011;2125;51.436;14.138;2022-12-07T04:56:22;5.60;;;2.40;;
4222;SDS011;2125;51.436;14.138;2022-12-07T04:58:49;4.20;;;2.13;;
4222;SDS011;2125;51.436;14.138;2022-12-07T05:01:17;11.37;;;4.77;;
4222;SDS011;2125;51.436;14.138;2022-12-07T05:03:44;20.97;;;5.47;;
4222;SDS011;2125;51.436;14.138;2022-12-07T05:06:10;11.90;;;4.97;;
4222;SDS011;2125;51.436;14.138;2022-12-07T05:08:37;21.97;;;6.63;;
4222;SDS011;2125;51.436;14.138;2022-12-07T05:11:06;15.87;;;5.80;;
4222;SDS011;2125;51.436;14.138;2022-12-07T05:13:34;8.30;;;3.47;;
4222;SDS011;2125;51.436;14.138;2022-12-07T05:16:01;11.07;;;4.10;;
4222;SDS011;2125;51.436;14.138;2022-12-07T05:18:28;12.47;;;2.90;;
4222;SDS011;2125;51.436;14.138;2022-12-07T05:20:55;12.60;;;5.07;;
4222;SDS011;2125;51.436;14.138;2022-12-07T05:23:21;13.67;;;5.10;;
4222;SDS011;2125;51.436;14.138;2022-12-07T05:25:48;10.93;;;4.00;;
4222;SDS011;2125;51.436;14.138;2022-12-07T05:28:16;15.63;;;5.47;;
4222;SDS011;2125;51.436;14.138;2022-12-07T05:30:42;17.43;;;6.60;;
4222;SDS011;2125;51.436;14.138;2022-12-07T05:33:09;22.87;;;6.67;;
4222;SDS011;2125;51.436;14.138;2022-12-07T05:35:35;17.37;;;5.33;;
4222;SDS011;2125;51.436;14.138;2022-12-07T05:38:02;7.27;;;2.40;;
4222;SDS011;2125;51.436;14.138;2022-12-07T05:40:29;8.63;;;4.10;;
4222;SDS011;2125;51.436;14.138;2022-12-07T05:42:55;19.43;;;6.80;;
4222;SDS011;2125;51.436;14.138;2022-12-07T05:45:23;14.23;;;4.80;;
4222;SDS011;2125;51.436;14.138;2022-12-07T05:47:50;21.50;;;6.93;;
4222;SDS011;2125;51.436;14.138;2022-12-07T05:50:17;19.00;;;5.40;;
4222;SDS011;2125;51.436;14.138;2022-12-07T05:52:43;17.67;;;5.80;;
4222;SDS011;2125;51.436;14.138;2022-12-07T05:55:10;11.53;;;4.33;;
4222;SDS011;2125;51.436;14.138;2022-12-07T05:57:36;7.97;;;3.40;;
4222;SDS011;2125;51.436;14.138;2022-12-07T06:00:03;8.23;;;3.80;;
4222;SDS011;2125;51.436;14.138;2022-12-07T06:02:32;4.53;;;2.50;;
4222;SDS011;2125;51.436;14.138;2022-12-07T06:04:58;2.53;;;1.40;;
4222;SDS011;2125;51.436;14.138;2022-12-07T06:07:25;6.23;;;2.70;;
4222;SDS011;2125;51.436;14.138;2022-12-07T06:09:51;24.57;;;4.87;;
4222;SDS011;2125;51.436;14.138;2022-12-07T06:12:18;14.43;;;4.47;;
4222;SDS011;2125;51.436;14.138;2022-12-07T06:15:07;6.00;;;3.20;;
4222;SDS011;2125;51.436;14.138;2022-12-07T06:17:36;7.77;;;3.07;;
4222;SDS011;2125;51.436;14.138;2022-12-07T06:20:03;9.03;;;2.93;;
4222;SDS011;2125;51.436;14.138;2022-12-07T06:22:31;7.67;;;2.30;;
4222;SDS011;2125;51.436;14.138;2022-12-07T06:24:57;5.40;;;3.70;;
4222;SDS011;2125;51.436;14.138;2022-12-07T06:27:24;15.50;;;4.10;;
4222;SDS011;2125;51.436;14.138;2022-12-07T06:29:50;4.67;;;2.30;;
4222;SDS011;2125;51.436;14.138;2022-12-07T06:32:17;6.90;;;3.17;;
4222;SDS011;2125;51.436;14.138;2022-12-07T06:34:45;7.10;;;2.67;;
4222;SDS011;2125;51.436;14.138;2022-12-07T06:37:12;8.37;;;3.40;;
4222;SDS011;2125;51.436;14.138;2022-12-07T06:39:39;10.97;;;4.53;;
4222;SDS011;2125;51.436;14.138;2022-12-07T06:42:05;15.13;;;5.43;;
4222;SDS011;2125;51.436;14.138;2022-12-07T06:44:32;8.03;;;2.87;;
4222;SDS011;2125;51.436;14.138;2022-12-07T06:46:59;4.90;;;2.77;;
4222;SDS011;2125;51.436;14.138;2022-12-07T06:49:25;3.07;;;2.40;;
4222;SDS011;2125;51.436;14.138;2022-12-07T06:51:53;2.87;;;1.93;;
4222;SDS011;2125;51.436;14.138;2022-12-07T06:54:20;8.07;;;4.23;;
4222;SDS011;2125;51.436;14.138;2022-12-07T06:56:46;7.50;;;2.87;;
4222;SDS011;2125;51.436;14.138;2022-12-07T06:59:13;2.63;;;1.00;;
4222;SDS011;2125;51.436;14.138;2022-12-07T07:01:40;6.07;;;2.80;;
4222;SDS011;2125;51.436;14.138;2022-12-07T07:04:06;10.30;;;3.50;;
4222;SDS011;2125;51.436;14.138;2022-12-07T07:06:33;8.93;;;3.70;;
4222;SDS011;2125;51.436;14.138;2022-12-07T07:09:01;4.80;;;1.97;;
4222;SDS011;2125;51.436;14.138;2022-12-07T07:11:27;10.87;;;4.70;;
4222;SDS011;2125;51.436;14.138;2022-12-07T07:13:54;10.70;;;4.00;;
4222;SDS011;2125;51.436;14.138;2022-12-07T07:16:26;2.57;;;1.70;;
4222;SDS011;2125;51.436;14.138;2022-12-07T07:18:53;3.43;;;2.27;;
4222;SDS011;2125;51.436;14.138;2022-12-07T07:21:20;13.13;;;4.43;;
4222;SDS011;2125;51.436;14.138;2022-12-07T07:23:47;6.20;;;1.67;;
4222;SDS011;2125;51.436;14.138;2022-12-07T07:26:14;0.70;;;0.60;;
4222;SDS011;2125;51.436;14.138;2022-12-07T07:28:41;6.87;;;2.83;;
4222;SDS011;2125;51.436;14.138;2022-12-07T07:31:08;11.20;;;3.70;;
4222;SDS011;2125;51.436;14.138;2022-12-07T07:33:34;5.10;;;1.57;;
4222;SDS011;2125;51.436;14.138;2022-12-07T07:36:01;12.20;;;3.83;;
4222;SDS011;2125;51.436;14.138;2022-12-07T07:38:27;8.17;;;2.90;;
4222;SDS011;2125;51.436;14.138;2022-12-07T07:40:54;7.83;;;3.80;;
4222;SDS011;2125;51.436;14.138;2022-12-07T07:43:22;4.10;;;2.97;;
4222;SDS011;2125;51.436;14.138;2022-12-07T07:45:48;2.67;;;0.93;;
4222;SDS011;2125;51.436;14.138;2022-12-07T07:48:15;4.53;;;2.13;;
4222;SDS011;2125;51.436;14.138;2022-12-07T07:50:42;9.50;;;3.10;;
4222;SDS011;2125;51.436;14.138;2022-12-07T07:53:09;7.00;;;2.00;;
4222;SDS011;2125;51.436;14.138;2022-12-07T07:55:36;6.40;;;2.83;;
4222;SDS011;2125;51.436;14.138;2022-12-07T07:58:03;9.57;;;4.50;;
4222;SDS011;2125;51.436;14.138;2022-12-07T08:00:31;3.03;;;2.40;;
4222;SDS011;2125;51.436;14.138;2022-12-07T08:02:58;4.70;;;2.03;;
4222;SDS011;2125;51.436;14.138;2022-12-07T08:05:25;5.07;;;3.23;;
4222;SDS011;2125;51.436;14.138;2022-12-07T08:07:51;6.60;;;2.97;;
4222;SDS011;2125;51.436;14.138;2022-12-07T08:10:18;10.23;;;5.10;;
4222;SDS011;2125;51.436;14.138;2022-12-07T08:12:51;8.47;;;4.43;;
4222;SDS011;2125;51.436;14.138;2022-12-07T08:15:37;1.73;;;1.37;;
4222;SDS011;2125;51.436;14.138;2022-12-07T08:18:05;7.40;;;3.60;;
4222;SDS011;2125;51.436;14.138;2022-12-07T08:20:32;8.47;;;2.13;;
4222;SDS011;2125;51.436;14.138;2022-12-07T08:23:00;8.07;;;3.50;;
4222;SDS011;2125;51.436;14.138;2022-12-07T08:25:27;5.40;;;2.30;;
4222;SDS011;2125;51.436;14.138;2022-12-07T08:27:54;14.23;;;5.10;;
4222;SDS011;2125;51.436;14.138;2022-12-07T08:30:20;11.00;;;4.30;;
4222;SDS011;2125;51.436;14.138;2022-12-07T08:32:49;3.63;;;2.50;;
4222;SDS011;2125;51.436;14.138;2022-12-07T08:35:16;8.50;;;3.73;;
4222;SDS011;2125;51.436;14.138;2022-12-07T08:37:43;14.07;;;5.37;;
4222;SDS011;2125;51.436;14.138;2022-12-07T08:40:10;5.23;;;2.27;;
4222;SDS011;2125;51.436;14.138;2022-12-07T08:42:40;8.27;;;3.10;;
4222;SDS011;2125;51.436;14.138;2022-12-07T08:45:08;10.23;;;3.30;;
4222;SDS011;2125;51.436;14.138;2022-12-07T08:47:37;7.40;;;1.33;;
4222;SDS011;2125;51.436;14.138;2022-12-07T08:50:14;7.13;;;2.87;;
4222;SDS011;2125;51.436;14.138;2022-12-07T08:52:42;4.50;;;2.10;;
4222;SDS011;2125;51.436;14.138;2022-12-07T08:55:10;4.03;;;2.17;;
4222;SDS011;2125;51.436;14.138;2022-12-07T08:57:38;3.27;;;2.10;;
4222;SDS011;2125;51.436;14.138;2022-12-07T09:00:08;10.43;;;4.67;;
4222;SDS011;2125;51.436;14.138;2022-12-07T09:02:35;11.80;;;5.07;;
4222;SDS011;2125;51.436;14.138;2022-12-07T09:05:02;2.13;;;1.67;;
4222;SDS011;2125;51.436;14.138;2022-12-07T09:07:30;4.07;;;2.40;;
4222;SDS011;2125;51.436;14.138;2022-12-07T09:09:59;7.23;;;4.03;;
4222;SDS011;2125;51.436;14.138;2022-12-07T09:12:26;10.37;;;4.50;;
4222;SDS011;2125;51.436;14.138;2022-12-07T09:14:55;2.70;;;1.77;;
4222;SDS011;2125;51.436;14.138;2022-12-07T09:17:22;4.60;;;3.50;;
4222;SDS011;2125;51.436;14.138;2022-12-07T09:19:48;9.00;;;3.07;;
4222;SDS011;2125;51.436;14.138;2022-12-07T09:22:15;9.93;;;4.43;;
4222;SDS011;2125;51.436;14.138;2022-12-07T09:24:43;7.10;;;2.67;;
4222;SDS011;2125;51.436;14.138;2022-12-07T09:27:10;4.07;;;1.37;;
4222;SDS011;2125;51.436;14.138;2022-12-07T09:29:37;3.60;;;1.37;;
4222;SDS011;2125;51.436;14.138;2022-12-07T09:32:04;3.73;;;2.30;;
4222;SDS011;2125;51.436;14.138;2022-12-07T09:34:31;15.57;;;5.63;;
4222;SDS011;2125;51.436;14.138;2022-12-07T09:36:57;9.67;;;3.53;;
4222;SDS011;2125;51.436;14.138;2022-12-07T09:39:26;6.70;;;3.40;;
4222;SDS011;2125;51.436;14.138;2022-12-07T09:41:54;9.20;;;4.40;;
4222;SDS011;2125;51.436;14.138;2022-12-07T09:44:25;7.83;;;2.30;;
4222;SDS011;2125;51.436;14.138;2022-12-07T09:46:53;7.00;;;3.00;;
4222;SDS011;2125;51.436;14.138;2022-12-07T09:49:22;11.73;;;5.40;;
4222;SDS011;2125;51.436;14.138;2022-12-07T09:51:59;5.40;;;3.30;;
4222;SDS011;2125;51.436;14.138;2022-12-07T09:54:28;3.00;;;2.30;;
4222;SDS011;2125;51.436;14.138;2022-12-07T09:56:57;10.47;;;5.00;;
4222;SDS011;2125;51.436;14.138;2022-12-07T09:59:24;10.00;;;5.20;;
4222;SDS011;2125;51.436;14.138;2022-12-07T10:01:51;5.63;;;3.73;;
4222;SDS011;2125;51.436;14.138;2022-12-07T10:04:19;7.00;;;4.53;;
4222;SDS011;2125;51.436;14.138;2022-12-07T10:06:48;5.57;;;2.23;;
4222;SDS011;2125;51.436;14.138;2022-12-07T10:09:18;8.80;;;2.87;;
4222;SDS011;2125;51.436;14.138;2022-12-07T10:12:04;5.03;;;2.60;;
4222;SDS011;2125;51.436;14.138;2022-12-07T10:14:34;8.53;;;4.20;;
4222;SDS011;2125;51.436;14.138;2022-12-07T10:17:02;8.63;;;4.23;;
4222;SDS011;2125;51.436;14.138;2022-12-07T10:20:07;11.13;;;5.40;;
4222;SDS011;2125;51.436;14.138;2022-12-07T10:22:41;12.07;;;4.33;;
4222;SDS011;2125;51.436;14.138;2022-12-07T10:25:21;6.70;;;3.23;;
4222;SDS011;2125;51.436;14.138;2022-12-07T10:27:58;8.57;;;4.50;;
4222;SDS011;2125;51.436;14.138;2022-12-07T10:30:45;5.73;;;2.87;;
4222;SDS011;2125;51.436;14.138;2022-12-07T10:33:17;11.73;;;5.97;;
4222;SDS011;2125;51.436;14.138;2022-12-07T10:35:54;7.73;;;3.30;;
4222;SDS011;2125;51.436;14.138;2022-12-07T10:38:21;10.87;;;5.07;;
4222;SDS011;2125;51.436;14.138;2022-12-07T10:40:51;10.57;;;5.10;;
4222;SDS011;2125;51.436;14.138;2022-12-07T10:43:32;11.57;;;4.70;;
4222;SDS011;2125;51.436;14.138;2022-12-07T10:49:08;5.17;;;2.97;;
4222;SDS011;2125;51.436;14.138;2022-12-07T10:51:54;4.87;;;2.20;;
4222;SDS011;2125;51.436;14.138;2022-12-07T10:54:31;6.70;;;3.27;;
4222;SDS011;2125;51.436;14.138;2022-12-07T10:57:21;12.67;;;4.03;;
4222;SDS011;2125;51.436;14.138;2022-12-07T11:00:04;13.10;;;4.90;;
4222;SDS011;2125;51.436;14.138;2022-12-07T11:02:47;9.53;;;4.60;;
4222;SDS011;2125;51.436;14.138;2022-12-07T11:05:39;11.50;;;5.10;;
4222;SDS011;2125;51.436;14.138;2022-12-07T11:08:13;9.60;;;4.30;;
4222;SDS011;2125;51.436;14.138;2022-12-07T11:10:48;9.40;;;3.10;;
4222;SDS011;2125;51.436;14.138;2022-12-07T11:13:25;6.97;;;2.73;;
4222;SDS011;2125;51.436;14.138;2022-12-07T11:16:10;6.50;;;3.70;;
4222;SDS011;2125;51.436;14.138;2022-12-07T11:18:50;8.80;;;2.73;;
4222;SDS011;2125;51.436;14.138;2022-12-07T11:21:26;6.27;;;3.27;;
4222;SDS011;2125;51.436;14.138;2022-12-07T11:24:01;10.87;;;4.73;;
4222;SDS011;2125;51.436;14.138;2022-12-07T11:26:34;10.13;;;3.37;;
4222;SDS011;2125;51.436;14.138;2022-12-07T11:29:17;8.00;;;4.10;;
4222;SDS011;2125;51.436;14.138;2022-12-07T11:32:00;9.73;;;4.13;;
4222;SDS011;2125;51.436;14.138;2022-12-07T11:34:37;11.07;;;4.53;;
4222;SDS011;2125;51.436;14.138;2022-12-07T11:37:13;7.50;;;3.10;;
4222;SDS011;2125;51.436;14.138;2022-12-07T11:39:44;4.37;;;3.00;;
4222;SDS011;2125;51.436;14.138;2022-12-07T11:42:16;5.40;;;2.80;;
4222;SDS011;2125;51.436;14.138;2022-12-07T11:44:50;3.70;;;2.73;;
4222;SDS011;2125;51.436;14.138;2022-12-07T11:47:22;4.67;;;3.07;;
4222;SDS011;2125;51.436;14.138;2022-12-07T11:49:57;4.07;;;2.30;;
4222;SDS011;2125;51.436;14.138;2022-12-07T11:52:43;2.33;;;1.63;;
4222;SDS011;2125;51.436;14.138;2022-12-07T11:55:16;4.77;;;2.17;;
4222;SDS011;2125;51.436;14.138;2022-12-07T11:57:49;4.23;;;2.40;;
4222;SDS011;2125;51.436;14.138;2022-12-07T12:00:20;2.33;;;1.80;;
4222;SDS011;2125;51.436;14.138;2022-12-07T12:02:51;2.33;;;1.90;;
4222;SDS011;2125;51.436;14.138;2022-12-07T12:05:23;2.57;;;1.70;;
4222;SDS011;2125;51.436;14.138;2022-12-07T12:07:52;5.23;;;2.90;;
4222;SDS011;2125;51.436;14.138;2022-12-07T12:10:26;1.80;;;1.50;;
4222;SDS011;2125;51.436;14.138;2022-12-07T12:13:03;4.47;;;2.00;;
4222;SDS011;2125;51.436;14.138;2022-12-07T12:15:49;3.63;;;2.13;;
4222;SDS011;2125;51.436;14.138;2022-12-07T12:18:32;2.73;;;1.80;;
4222;SDS011;2125;51.436;14.138;2022-12-07T12:21:15;1.40;;;0.77;;
4222;SDS011;2125;51.436;14.138;2022-12-07T12:23:44;1.87;;;1.43;;
4222;SDS011;2125;51.436;14.138;2022-12-07T12:26:16;1.03;;;0.50;;
4222;SDS011;2125;51.436;14.138;2022-12-07T12:28:49;1.60;;;1.10;;
4222;SDS011;2125;51.436;14.138;2022-12-07T12:31:30;1.73;;;1.07;;
4222;SDS011;2125;51.436;14.138;2022-12-07T12:34:02;1.20;;;1.10;;
4222;SDS011;2125;51.436;14.138;2022-12-07T12:36:43;2.80;;;1.67;;
4222;SDS011;2125;51.436;14.138;2022-12-07T12:39:12;1.03;;;0.77;;
4222;SDS011;2125;51.436;14.138;2022-12-07T12:50:30;0.70;;;0.60;;
4222;SDS011;2125;51.436;14.138;2022-12-07T12:53:02;1.10;;;0.87;;
4222;SDS011;2125;51.436;14.138;2022-12-07T12:58:43;1.77;;;1.40;;
4222;SDS011;2125;51.436;14.138;2022-12-07T13:10:28;2.40;;;1.00;;
4222;SDS011;2125;51.436;14.138;2022-12-07T13:13:01;1.20;;;1.03;;
4222;SDS011;2125;51.436;14.138;2022-12-07T13:15:31;2.20;;;1.13;;
4222;SDS011;2125;51.436;14.138;2022-12-07T13:18:00;1.07;;;0.70;;
4222;SDS011;2125;51.436;14.138;2022-12-07T13:23:19;1.83;;;1.00;;
4222;SDS011;2125;51.436;14.138;2022-12-07T13:25:51;1.10;;;0.77;;
4222;SDS011;2125;51.436;14.138;2022-12-07T13:28:21;0.67;;;0.50;;
4222;SDS011;2125;51.436;14.138;2022-12-07T13:30:58;1.80;;;0.90;;
4222;SDS011;2125;51.436;14.138;2022-12-07T13:33:30;1.90;;;0.67;;
4222;SDS011;2125;51.436;14.138;2022-12-07T13:36:00;0.97;;;0.60;;
4222;SDS011;2125;51.436;14.138;2022-12-07T13:38:27;2.10;;;0.80;;
4222;SDS011;2125;51.436;14.138;2022-12-07T13:41:04;3.03;;;0.90;;
4222;SDS011;2125;51.436;14.138;2022-12-07T13:43:45;0.77;;;0.70;;
4222;SDS011;2125;51.436;14.138;2022-12-07T13:46:14;1.53;;;0.70;;
4222;SDS011;2125;51.436;14.138;2022-12-07T13:48:44;1.60;;;1.20;;
4222;SDS011;2125;51.436;14.138;2022-12-07T13:51:19;24.37;;;1.50;;
4222;SDS011;2125;51.436;14.138;2022-12-07T13:53:49;1.73;;;0.60;;
4222;SDS011;2125;51.436;14.138;2022-12-07T13:56:18;1.27;;;0.93;;
4222;SDS011;2125;51.436;14.138;2022-12-07T13:58:48;1.03;;;0.73;;
4222;SDS011;2125;51.436;14.138;2022-12-07T14:01:15;1.80;;;0.93;;
4222;SDS011;2125;51.436;14.138;2022-12-07T14:03:41;1.20;;;0.50;;
4222;SDS011;2125;51.436;14.138;2022-12-07T14:06:13;4.33;;;1.10;;
4222;SDS011;2125;51.436;14.138;2022-12-07T14:09:08;1.40;;;0.80;;
4222;SDS011;2125;51.436;14.138;2022-12-07T14:11:49;1.17;;;0.90;;
4222;SDS011;2125;51.436;14.138;2022-12-07T14:14:51;2.20;;;1.20;;
4222;SDS011;2125;51.436;14.138;2022-12-07T14:17:20;1.20;;;0.70;;
4222;SDS011;2125;51.436;14.138;2022-12-07T14:19:54;3.63;;;2.10;;
4222;SDS011;2125;51.436;14.138;2022-12-07T14:22:23;1.03;;;0.70;;
4222;SDS011;2125;51.436;14.138;2022-12-07T14:25:14;2.47;;;0.97;;
4222;SDS011;2125;51.436;14.138;2022-12-07T14:27:50;0.63;;;0.60;;
4222;SDS011;2125;51.436;14.138;2022-12-07T14:30:20;1.80;;;1.00;;
4222;SDS011;2125;51.436;14.138;2022-12-07T14:32:49;2.87;;;1.70;;
4222;SDS011;2125;51.436;14.138;2022-12-07T14:35:19;1.07;;;0.83;;
4222;SDS011;2125;51.436;14.138;2022-12-07T14:37:46;0.80;;;0.60;;
4222;SDS011;2125;51.436;14.138;2022-12-07T14:47:00;2.33;;;1.30;;
4222;SDS011;2125;51.436;14.138;2022-12-07T14:49:37;1.50;;;1.20;;
4222;SDS011;2125;51.436;14.138;2022-12-07T14:52:09;1.80;;;1.17;;
4222;SDS011;2125;51.436;14.138;2022-12-07T14:55:03;0.97;;;0.83;;
4222;SDS011;2125;51.436;14.138;2022-12-07T14:57:48;5.30;;;2.17;;
4222;SDS011;2125;51.436;14.138;2022-12-07T15:00:15;3.23;;;1.03;;
4222;SDS011;2125;51.436;14.138;2022-12-07T15:02:46;2.10;;;1.60;;
4222;SDS011;2125;51.436;14.138;2022-12-07T15:05:14;1.97;;;0.83;;
4222;SDS011;2125;51.436;14.138;2022-12-07T15:07:42;2.47;;;1.40;;
4222;SDS011;2125;51.436;14.138;2022-12-07T15:10:13;11.73;;;3.20;;
4222;SDS011;2125;51.436;14.138;2022-12-07T15:12:42;3.60;;;2.00;;
4222;SDS011;2125;51.436;14.138;2022-12-07T15:15:09;3.13;;;1.77;;
4222;SDS011;2125;51.436;14.138;2022-12-07T15:17:36;8.83;;;3.30;;
4222;SDS011;2125;51.436;14.138;2022-12-07T15:20:04;1.07;;;0.97;;
4222;SDS011;2125;51.436;14.138;2022-12-07T15:22:33;9.10;;;3.73;;
4222;SDS011;2125;51.436;14.138;2022-12-07T15:25:00;1.93;;;1.73;;
4222;SDS011;2125;51.436;14.138;2022-12-07T15:27:28;6.37;;;3.17;;
4222;SDS011;2125;51.436;14.138;2022-12-07T15:29:56;4.77;;;1.90;;
4222;SDS011;2125;51.436;14.138;2022-12-07T15:32:22;3.07;;;2.00;;
4222;SDS011;2125;51.436;14.138;2022-12-07T15:34:49;7.60;;;3.17;;
4222;SDS011;2125;51.436;14.138;2022-12-07T15:37:17;3.50;;;1.60;;
4222;SDS011;2125;51.436;14.138;2022-12-07T15:39:44;4.30;;;2.23;;
4222;SDS011;2125;51.436;14.138;2022-12-07T15:42:10;3.40;;;2.27;;
4222;SDS011;2125;51.436;14.138;2022-12-07T15:44:37;6.67;;;1.40;;
4222;SDS011;2125;51.436;14.138;2022-12-07T15:47:21;6.17;;;3.30;;
4222;SDS011;2125;51.436;14.138;2022-12-07T15:49:47;2.90;;;1.90;;
4222;SDS011;2125;51.436;14.138;2022-12-07T15:52:14;4.57;;;1.93;;
4222;SDS011;2125;51.436;14.138;2022-12-07T15:54:42;4.33;;;1.60;;
4222;SDS011;2125;51.436;14.138;2022-12-07T15:57:09;4.07;;;1.80;;
4222;SDS011;2125;51.436;14.138;2022-12-07T15:59:36;4.13;;;1.10;;